createdAt,value
2022-10-26T00:01:11.455Z,22.20
2022-10-26T00:03:38.582Z,22.30
2022-10-26T00:06:10.250Z,22.30
2022-10-26T00:08:37.221Z,22.30
2022-10-26T00:11:04.192Z,22.30
2022-10-26T00:13:31.025Z,22.30
2022-10-26T00:18:29.897Z,22.20
2022-10-26T00:20:56.728Z,22.20
2022-10-26T00:23:23.472Z,22.30
2022-10-26T00:25:56.883Z,22.20
2022-10-26T00:28:23.739Z,22.20
2022-10-26T00:30:50.700Z,22.20
2022-10-26T00:33:17.610Z,22.20
2022-10-26T00:35:46.988Z,22.20
2022-10-26T00:38:13.904Z,22.20
2022-10-26T00:40:40.776Z,22.20
2022-10-26T00:43:34.002Z,22.20
2022-10-26T00:46:00.752Z,22.20
2022-10-26T00:48:29.263Z,22.20
2022-10-26T00:50:56.752Z,22.20
2022-10-26T00:53:23.500Z,22.20
2022-10-26T00:55:51.094Z,22.20
2022-10-26T00:58:17.810Z,22.20
2022-10-26T01:00:44.613Z,22.20
2022-10-26T01:03:11.507Z,22.20
2022-10-26T01:05:40.418Z,22.20
2022-10-26T01:08:07.957Z,22.20
2022-10-26T01:10:35.149Z,22.20
2022-10-26T01:13:01.907Z,22.20
2022-10-26T01:15:37.798Z,22.20
2022-10-26T01:18:28.528Z,22.20
2022-10-26T01:21:14.672Z,22.20
2022-10-26T01:24:17.942Z,22.20
2022-10-26T01:29:40.379Z,22.20
2022-10-26T01:32:33.828Z,22.20
2022-10-26T01:35:08.118Z,22.20
2022-10-26T01:37:37.822Z,22.20
2022-10-26T01:40:09.782Z,22.20
2022-10-26T01:42:37.025Z,22.20
2022-10-26T01:45:08.159Z,22.20
2022-10-26T01:47:35.084Z,22.20
2022-10-26T01:50:02.358Z,22.20
2022-10-26T01:52:29.144Z,22.20
2022-10-26T01:55:07.857Z,22.20
2022-10-26T01:57:35.451Z,22.20
2022-10-26T02:00:12.214Z,22.20
2022-10-26T02:02:44.775Z,22.20
2022-10-26T02:05:33.446Z,22.20
2022-10-26T02:08:23.757Z,22.20
2022-10-26T02:11:11.790Z,22.20
2022-10-26T02:14:10.489Z,22.20
2022-10-26T02:16:56.522Z,22.20
2022-10-26T02:19:51.775Z,22.20
2022-10-26T02:22:37.375Z,22.20
2022-10-26T02:25:09.344Z,22.10
2022-10-26T02:27:38.714Z,22.20
2022-10-26T02:30:06.052Z,22.20
2022-10-26T02:32:35.034Z,22.10
2022-10-26T02:35:02.825Z,22.20
2022-10-26T02:37:29.557Z,22.20
2022-10-26T02:39:56.282Z,22.20
2022-10-26T02:42:22.997Z,22.20
2022-10-26T02:44:50.713Z,22.20
2022-10-26T02:47:18.203Z,22.10
2022-10-26T02:49:44.968Z,22.20
2022-10-26T02:52:18.793Z,22.10
2022-10-26T02:55:01.548Z,22.10
2022-10-26T02:57:35.169Z,22.20
2022-10-26T03:00:01.947Z,22.10
2022-10-26T03:02:30.307Z,22.10
2022-10-26T03:04:57.102Z,22.10
2022-10-26T03:07:24.321Z,22.10
2022-10-26T03:09:51.135Z,22.10
2022-10-26T03:12:18.137Z,22.20
2022-10-26T03:14:45.066Z,22.10
2022-10-26T03:17:11.781Z,22.10
2022-10-26T03:19:38.513Z,22.10
2022-10-26T03:22:05.233Z,22.10
2022-10-26T03:24:31.947Z,22.20
2022-10-26T03:27:01.217Z,22.10
2022-10-26T03:29:29.091Z,22.10
2022-10-26T03:31:55.849Z,22.10
2022-10-26T03:34:22.563Z,22.10
2022-10-26T03:36:49.340Z,22.10
2022-10-26T03:39:16.057Z,22.10
2022-10-26T03:41:42.853Z,22.10
2022-10-26T03:44:09.654Z,22.10
2022-10-26T03:46:36.379Z,22.10
2022-10-26T03:49:03.146Z,22.10
2022-10-26T03:51:29.858Z,22.10
2022-10-26T03:53:56.571Z,22.10
2022-10-26T03:56:23.342Z,22.10
2022-10-26T03:58:50.052Z,22.10
2022-10-26T04:01:16.828Z,22.10
2022-10-26T04:03:43.572Z,22.10
2022-10-26T04:06:10.323Z,22.10
2022-10-26T04:08:37.099Z,22.10
2022-10-26T04:11:04.796Z,22.10
2022-10-26T04:13:31.812Z,22.00
2022-10-26T04:15:58.604Z,22.00
2022-10-26T04:18:25.393Z,22.10
2022-10-26T04:20:52.108Z,22.10
2022-10-26T04:23:19.201Z,22.00
2022-10-26T04:25:46.070Z,22.00
2022-10-26T04:28:13.348Z,22.00
2022-10-26T04:30:42.393Z,22.00
2022-10-26T04:33:09.298Z,22.10
2022-10-26T04:35:37.075Z,22.00
2022-10-26T04:38:05.817Z,22.00
2022-10-26T04:40:33.123Z,22.00
2022-10-26T04:43:00.053Z,22.00
2022-10-26T04:45:28.683Z,22.00
2022-10-26T04:48:05.505Z,22.00
2022-10-26T04:50:32.228Z,22.00
2022-10-26T04:52:58.921Z,22.00
2022-10-26T04:55:25.993Z,22.00
2022-10-26T04:57:55.895Z,22.00
2022-10-26T05:00:25.453Z,22.00
2022-10-26T05:02:52.684Z,22.10
2022-10-26T05:05:19.755Z,22.10
2022-10-26T05:07:54.900Z,22.10
2022-10-26T05:10:21.903Z,22.10
2022-10-26T05:12:52.683Z,22.10
2022-10-26T05:15:19.729Z,22.10
2022-10-26T05:17:47.259Z,22.10
2022-10-26T05:20:14.643Z,22.10
2022-10-26T05:22:43.840Z,22.10
2022-10-26T05:25:11.932Z,22.10
2022-10-26T05:27:38.925Z,22.10
2022-10-26T05:32:38.232Z,22.10
2022-10-26T05:35:05.635Z,22.10
2022-10-26T05:37:32.618Z,22.20
2022-10-26T05:39:59.579Z,22.10
2022-10-26T05:42:26.551Z,22.20
2022-10-26T05:44:53.494Z,22.10
2022-10-26T05:47:20.405Z,22.20
2022-10-26T05:49:47.995Z,22.20
2022-10-26T05:52:15.485Z,22.10
2022-10-26T05:54:43.239Z,22.10
2022-10-26T05:57:15.019Z,22.20
2022-10-26T05:59:42.797Z,22.20
2022-10-26T06:02:14.454Z,22.10
2022-10-26T06:04:47.965Z,22.20
2022-10-26T06:07:20.060Z,22.20
2022-10-26T06:09:47.278Z,22.20
2022-10-26T06:12:18.373Z,22.20
2022-10-26T06:14:46.873Z,22.20
2022-10-26T06:17:30.614Z,22.20
2022-10-26T06:20:21.224Z,22.20
2022-10-26T06:22:59.380Z,22.20
2022-10-26T06:25:49.407Z,22.20
2022-10-26T06:28:22.241Z,22.20
2022-10-26T06:30:49.026Z,22.20
2022-10-26T06:33:28.993Z,22.20
2022-10-26T06:36:11.453Z,22.20
2022-10-26T06:38:38.245Z,22.20
2022-10-26T06:41:04.993Z,22.20
2022-10-26T06:43:32.724Z,22.20
2022-10-26T06:45:59.459Z,22.20
2022-10-26T06:48:28.281Z,22.20
2022-10-26T06:50:55.242Z,22.20
2022-10-26T06:53:53.871Z,22.20
2022-10-26T06:56:20.891Z,22.20
2022-10-26T06:58:48.048Z,22.20
2022-10-26T07:01:15.709Z,22.20
2022-10-26T07:03:42.997Z,22.20
2022-10-26T07:06:10.261Z,22.20
2022-10-26T07:08:37.297Z,22.20
2022-10-26T07:11:04.925Z,22.20
2022-10-26T07:13:31.884Z,22.20
2022-10-26T07:15:58.914Z,22.10
2022-10-26T07:18:25.673Z,22.10
2022-10-26T07:20:52.421Z,22.10
2022-10-26T07:23:19.246Z,22.20
2022-10-26T07:25:48.108Z,22.10
2022-10-26T07:28:15.072Z,22.10
2022-10-26T07:30:42.896Z,22.10
2022-10-26T07:33:13.935Z,22.10
2022-10-26T07:35:40.781Z,22.10
2022-10-26T07:38:07.541Z,22.10
2022-10-26T07:40:34.302Z,22.10
2022-10-26T07:43:01.223Z,22.10
2022-10-26T07:45:28.428Z,22.00
2022-10-26T07:47:55.404Z,22.10
2022-10-26T07:50:22.292Z,22.10
2022-10-26T07:52:49.371Z,22.10
2022-10-26T07:55:17.138Z,22.10
2022-10-26T07:57:43.855Z,22.10
2022-10-26T08:00:11.448Z,22.10
2022-10-26T08:02:38.189Z,22.10
2022-10-26T08:05:05.391Z,22.00
2022-10-26T08:07:32.152Z,22.10
2022-10-26T08:09:58.916Z,22.10
2022-10-26T08:12:25.621Z,22.10
2022-10-26T08:14:52.797Z,22.00
2022-10-26T08:17:21.633Z,22.00
2022-10-26T08:19:49.892Z,22.10
2022-10-26T08:22:18.626Z,22.10
2022-10-26T08:24:48.448Z,22.00
2022-10-26T08:27:17.434Z,22.00
2022-10-26T08:29:44.186Z,22.00
2022-10-26T08:32:10.906Z,22.00
2022-10-26T08:34:37.698Z,22.00
2022-10-26T08:37:04.554Z,22.00
2022-10-26T08:39:31.252Z,22.00
2022-10-26T08:42:14.017Z,22.00
2022-10-26T08:44:52.867Z,22.00
2022-10-26T08:47:20.406Z,22.00
2022-10-26T08:49:52.428Z,22.00
2022-10-26T08:52:22.462Z,22.00
2022-10-26T08:54:58.034Z,22.00
2022-10-26T08:57:28.681Z,22.00
2022-10-26T09:00:04.691Z,22.00
2022-10-26T09:02:31.450Z,22.00
2022-10-26T09:05:01.359Z,22.00
2022-10-26T09:07:51.385Z,22.10
2022-10-26T09:10:19.166Z,22.10
2022-10-26T09:13:02.271Z,22.10
2022-10-26T09:15:48.206Z,22.10
2022-10-26T09:18:28.045Z,22.10
2022-10-26T09:21:13.299Z,22.10
2022-10-26T09:23:48.989Z,22.10
2022-10-26T09:26:21.458Z,22.20
2022-10-26T09:28:48.740Z,22.10
2022-10-26T09:31:16.982Z,22.10
2022-10-26T09:33:43.739Z,22.20
2022-10-26T09:36:15.963Z,22.20
2022-10-26T09:38:44.873Z,22.20
2022-10-26T09:41:20.490Z,22.20
2022-10-26T09:44:10.568Z,22.20
2022-10-26T09:46:57.996Z,22.20
2022-10-26T09:49:31.321Z,22.20
2022-10-26T09:51:58.528Z,22.20
2022-10-26T09:54:25.566Z,22.20
2022-10-26T09:56:54.410Z,22.20
2022-10-26T09:59:23.485Z,22.20
2022-10-26T10:01:50.492Z,22.20
2022-10-26T10:04:28.257Z,22.10
2022-10-26T10:07:00.968Z,22.10
2022-10-26T10:09:27.713Z,22.20
2022-10-26T10:11:56.526Z,22.10
2022-10-26T10:14:28.064Z,22.10
2022-10-26T10:16:56.689Z,22.10
2022-10-26T10:19:27.337Z,22.10
2022-10-26T10:21:58.871Z,22.10
2022-10-26T10:24:35.184Z,22.10
2022-10-26T10:27:16.642Z,22.10
2022-10-26T10:29:48.553Z,22.10
2022-10-26T10:32:17.414Z,22.10
2022-10-26T10:34:44.283Z,22.10
2022-10-26T10:37:29.461Z,22.10
2022-10-26T10:40:00.607Z,22.10
2022-10-26T10:42:30.956Z,22.10
2022-10-26T10:44:57.780Z,22.10
2022-10-26T10:47:31.731Z,22.10
2022-10-26T10:50:02.509Z,22.10
2022-10-26T10:52:31.104Z,22.10
2022-10-26T10:55:21.071Z,22.10
2022-10-26T10:58:00.404Z,22.10
2022-10-26T11:00:27.212Z,22.10
2022-10-26T11:02:59.712Z,22.10
2022-10-26T11:05:50.762Z,22.10
2022-10-26T11:08:40.226Z,22.10
2022-10-26T11:11:16.500Z,22.10
2022-10-26T11:13:53.534Z,22.10
2022-10-26T11:16:42.522Z,22.10
2022-10-26T11:19:30.923Z,22.10
2022-10-26T11:21:57.678Z,22.10
2022-10-26T11:24:34.462Z,22.10
2022-10-26T11:27:39.851Z,22.10
2022-10-26T11:30:13.557Z,22.10
2022-10-26T11:32:57.540Z,22.10
2022-10-26T11:35:34.451Z,22.10
2022-10-26T11:38:23.938Z,22.10
2022-10-26T11:41:24.594Z,22.20
2022-10-26T11:44:03.217Z,22.20
2022-10-26T11:46:37.004Z,22.20
2022-10-26T11:49:19.326Z,22.20
2022-10-26T11:52:14.655Z,22.20
2022-10-26T11:54:48.591Z,22.30
2022-10-26T11:57:16.117Z,22.30
2022-10-26T11:59:49.655Z,22.20
2022-10-26T12:02:21.507Z,22.30
2022-10-26T12:05:45.497Z,22.20
2022-10-26T12:08:42.710Z,22.30
2022-10-26T12:11:39.382Z,22.20
2022-10-26T12:14:24.982Z,22.20
2022-10-26T12:17:06.918Z,22.20
2022-10-26T12:19:50.867Z,22.20
2022-10-26T12:22:19.537Z,22.20
2022-10-26T12:24:47.739Z,22.20
2022-10-26T12:27:31.492Z,22.20
2022-10-26T12:30:31.072Z,22.20
2022-10-26T12:33:03.897Z,22.30
2022-10-26T12:35:37.307Z,22.20
2022-10-26T12:38:29.009Z,22.30
2022-10-26T12:41:08.626Z,22.30
2022-10-26T12:43:39.629Z,22.30
2022-10-26T12:46:15.384Z,22.30
2022-10-26T12:48:49.753Z,22.30
2022-10-26T12:51:24.698Z,22.40
2022-10-26T12:54:03.253Z,22.30
2022-10-26T12:56:37.801Z,22.40
2022-10-26T12:59:27.427Z,22.40
2022-10-26T13:02:02.983Z,22.40
2022-10-26T13:04:45.838Z,22.50
2022-10-26T13:07:24.882Z,22.50
2022-10-26T13:09:59.348Z,22.50
2022-10-26T13:12:26.606Z,22.50
2022-10-26T13:15:02.209Z,22.50
2022-10-26T13:17:31.550Z,22.60
2022-10-26T13:20:03.202Z,22.60
2022-10-26T13:22:30.245Z,22.60
2022-10-26T13:25:04.765Z,22.60
2022-10-26T13:27:35.202Z,22.60
2022-10-26T13:30:04.883Z,22.60
2022-10-26T13:32:39.295Z,22.70
2022-10-26T13:35:06.268Z,22.70
2022-10-26T13:37:33.811Z,22.70
2022-10-26T13:40:00.661Z,22.70
2022-10-26T13:42:30.137Z,22.70
2022-10-26T13:45:03.806Z,22.70
2022-10-26T13:47:44.097Z,22.80
2022-10-26T13:50:14.905Z,22.80
2022-10-26T13:52:43.483Z,22.80
2022-10-26T13:55:13.650Z,22.80
2022-10-26T13:57:43.207Z,22.80
2022-10-26T14:00:20.507Z,22.80
2022-10-26T14:02:49.162Z,22.80
2022-10-26T14:05:17.350Z,22.80
2022-10-26T14:07:45.995Z,22.90
2022-10-26T14:10:29.049Z,22.90
2022-10-26T14:12:56.343Z,22.90
2022-10-26T14:15:28.121Z,23.00
2022-10-26T14:17:55.171Z,23.00
2022-10-26T14:20:23.134Z,23.00
2022-10-26T14:22:50.897Z,23.00
2022-10-26T14:25:30.967Z,23.00
2022-10-26T14:28:41.699Z,23.00
2022-10-26T14:31:30.793Z,23.00
2022-10-26T14:33:58.746Z,23.10
2022-10-26T14:36:45.298Z,23.10
2022-10-26T14:39:33.485Z,23.10
2022-10-26T14:42:01.346Z,23.10
2022-10-26T14:44:28.112Z,23.10
2022-10-26T14:46:54.875Z,23.10
2022-10-26T14:49:26.753Z,23.20
2022-10-26T14:52:04.305Z,23.10
2022-10-26T14:54:32.243Z,23.20
2022-10-26T14:57:02.606Z,23.20
2022-10-26T14:59:31.236Z,23.20
2022-10-26T15:02:20.871Z,23.20
2022-10-26T15:05:04.602Z,23.20
2022-10-26T15:07:38.224Z,23.20
2022-10-26T15:10:05.754Z,23.30
2022-10-26T15:12:33.164Z,23.20
2022-10-26T15:17:56.265Z,23.20
2022-10-26T15:20:27.018Z,23.20
2022-10-26T15:22:57.541Z,23.20
2022-10-26T15:25:28.221Z,23.10
2022-10-26T15:27:56.905Z,23.10
2022-10-26T15:30:27.517Z,23.10
2022-10-26T15:32:55.025Z,23.00
2022-10-26T15:35:26.991Z,23.00
2022-10-26T15:37:55.467Z,22.90
2022-10-26T15:40:22.931Z,22.80
2022-10-26T15:42:52.167Z,22.80
2022-10-26T15:45:26.750Z,22.70
2022-10-26T15:47:54.761Z,22.70
2022-10-26T15:50:26.360Z,22.60
2022-10-26T15:53:01.598Z,22.60
2022-10-26T15:55:29.187Z,22.60
2022-10-26T15:57:56.017Z,22.60
2022-10-26T16:00:22.835Z,22.60
2022-10-26T16:02:49.672Z,22.60
2022-10-26T16:05:16.994Z,22.60
2022-10-26T16:07:45.282Z,22.60
2022-10-26T16:10:18.925Z,22.60
2022-10-26T16:12:46.447Z,22.60
2022-10-26T16:15:24.439Z,22.60
2022-10-26T16:17:52.984Z,22.60
2022-10-26T16:20:27.710Z,22.60
2022-10-26T16:22:54.744Z,22.60
2022-10-26T16:25:24.392Z,22.60
2022-10-26T16:27:52.656Z,22.50
2022-10-26T16:30:22.364Z,22.50
2022-10-26T16:32:51.695Z,22.50
2022-10-26T16:35:18.685Z,22.50
2022-10-26T16:37:45.965Z,22.50
2022-10-26T16:40:12.830Z,22.50
2022-10-26T16:42:43.853Z,22.50
2022-10-26T16:45:14.511Z,22.40
2022-10-26T16:47:41.462Z,22.40
2022-10-26T16:50:09.299Z,22.40
2022-10-26T16:52:36.209Z,22.40
2022-10-26T16:55:03.409Z,22.40
2022-10-26T16:57:30.168Z,22.40
2022-10-26T16:59:57.759Z,22.40
2022-10-26T17:02:24.833Z,22.40
2022-10-26T17:04:52.526Z,22.40
2022-10-26T17:07:19.483Z,22.40
2022-10-26T17:09:46.277Z,22.40
2022-10-26T17:12:13.239Z,22.40
2022-10-26T17:14:40.371Z,22.30
2022-10-26T17:17:07.131Z,22.30
2022-10-26T17:19:34.299Z,22.30
2022-10-26T17:22:03.772Z,22.30
2022-10-26T17:24:33.141Z,22.30
2022-10-26T17:26:59.945Z,22.30
2022-10-26T17:29:26.793Z,22.30
2022-10-26T17:31:54.506Z,22.40
2022-10-26T17:34:21.659Z,22.30
2022-10-26T17:36:48.413Z,22.40
2022-10-26T17:39:16.266Z,22.30
2022-10-26T17:41:43.050Z,22.40
2022-10-26T17:44:09.803Z,22.40
2022-10-26T17:46:36.583Z,22.50
2022-10-26T17:49:03.602Z,22.40
2022-10-26T17:51:30.902Z,22.50
2022-10-26T17:53:59.333Z,22.50
2022-10-26T17:56:31.555Z,22.50
2022-10-26T17:59:00.362Z,22.50
2022-10-26T18:01:28.406Z,22.50
2022-10-26T18:03:56.767Z,22.50
2022-10-26T18:06:23.791Z,22.50
2022-10-26T18:08:50.610Z,22.50
2022-10-26T18:11:23.857Z,22.60
2022-10-26T18:13:57.927Z,22.60
2022-10-26T18:16:26.282Z,22.60
2022-10-26T18:19:01.064Z,22.60
2022-10-26T18:21:30.023Z,22.60
2022-10-26T18:23:59.152Z,22.60
2022-10-26T18:26:28.816Z,22.70
2022-10-26T18:28:56.891Z,22.70
2022-10-26T18:31:24.852Z,22.70
2022-10-26T18:34:01.076Z,22.70
2022-10-26T18:36:29.759Z,22.70
2022-10-26T18:38:58.146Z,22.70
2022-10-26T18:41:25.838Z,22.70
2022-10-26T18:43:54.356Z,22.70
2022-10-26T18:46:25.439Z,22.70
2022-10-26T18:48:52.572Z,22.70
2022-10-26T18:51:21.279Z,22.70
2022-10-26T18:53:48.183Z,22.70
2022-10-26T18:56:19.444Z,22.70
2022-10-26T18:58:50.107Z,22.70
2022-10-26T19:01:24.104Z,22.80
2022-10-26T19:04:00.473Z,22.80
2022-10-26T19:06:31.848Z,22.80
2022-10-26T19:09:00.214Z,22.80
2022-10-26T19:11:28.747Z,22.80
2022-10-26T19:13:56.051Z,22.80
2022-10-26T19:16:44.746Z,22.80
2022-10-26T19:19:12.424Z,22.80
2022-10-26T19:21:39.266Z,22.80
2022-10-26T19:24:07.786Z,22.80
2022-10-26T19:26:37.729Z,22.80
2022-10-26T19:29:08.304Z,22.80
2022-10-26T19:31:37.989Z,22.80
2022-10-26T19:34:04.946Z,22.80
2022-10-26T19:36:32.185Z,22.80
2022-10-26T19:38:59.404Z,22.80
2022-10-26T19:41:28.165Z,22.80
2022-10-26T19:43:55.206Z,22.80
2022-10-26T19:46:26.698Z,22.80
2022-10-26T19:48:54.788Z,22.80
2022-10-26T19:51:22.117Z,22.80
2022-10-26T19:53:49.267Z,22.80
2022-10-26T19:56:16.088Z,22.80
2022-10-26T19:58:43.617Z,22.80
2022-10-26T20:01:11.258Z,22.80
2022-10-26T20:03:38.104Z,22.80
2022-10-26T20:06:12.751Z,22.80
2022-10-26T20:08:40.665Z,22.80
2022-10-26T20:11:10.214Z,22.80
2022-10-26T20:13:40.294Z,22.80
2022-10-26T20:16:07.590Z,22.80
2022-10-26T20:18:34.567Z,22.80
2022-10-26T20:21:02.009Z,22.80
2022-10-26T20:23:30.135Z,22.80
2022-10-26T20:26:01.839Z,22.80
2022-10-26T20:28:30.508Z,22.80
2022-10-26T20:31:00.077Z,22.80
2022-10-26T20:33:27.531Z,22.80
2022-10-26T20:35:58.704Z,22.80
2022-10-26T20:38:26.122Z,22.80
2022-10-26T20:40:57.557Z,22.80
2022-10-26T20:43:25.474Z,22.80
2022-10-26T20:45:52.636Z,22.80
2022-10-26T20:48:19.816Z,22.80
2022-10-26T20:50:53.624Z,22.70
2022-10-26T20:53:28.894Z,22.70
2022-10-26T20:56:00.778Z,22.80
2022-10-26T20:59:05.852Z,22.70
2022-10-26T21:01:34.090Z,22.70
2022-10-26T21:04:03.157Z,22.70
2022-10-26T21:06:30.311Z,22.70
2022-10-26T21:08:57.921Z,22.70
2022-10-26T21:11:25.306Z,22.70
2022-10-26T21:13:53.169Z,22.70
2022-10-26T21:16:19.927Z,22.70
2022-10-26T21:18:46.727Z,22.60
2022-10-26T21:21:13.497Z,22.70
2022-10-26T21:23:40.731Z,22.70
2022-10-26T21:26:07.790Z,22.70
2022-10-26T21:28:39.092Z,22.60
2022-10-26T21:31:06.544Z,22.70
2022-10-26T21:33:34.961Z,22.60
2022-10-26T21:36:02.538Z,22.60
2022-10-26T21:38:30.055Z,22.60
2022-10-26T21:41:12.134Z,22.60
2022-10-26T21:43:39.804Z,22.60
2022-10-26T21:46:06.940Z,22.60
2022-10-26T21:48:35.754Z,22.60
2022-10-26T21:51:04.133Z,22.60
2022-10-26T21:53:31.051Z,22.50
2022-10-26T21:56:05.980Z,22.60
2022-10-26T21:58:32.752Z,22.50
2022-10-26T22:01:11.411Z,22.50
2022-10-26T22:03:38.387Z,22.50
2022-10-26T22:06:06.987Z,22.50
2022-10-26T22:08:33.859Z,22.50
2022-10-26T22:11:15.175Z,22.50
2022-10-26T22:13:43.229Z,22.50
2022-10-26T22:16:15.008Z,22.50
2022-10-26T22:18:43.302Z,22.50
2022-10-26T22:21:10.215Z,22.50
2022-10-26T22:23:39.003Z,22.50
2022-10-26T22:26:08.258Z,22.50
2022-10-26T22:28:40.026Z,22.50
2022-10-26T22:31:10.843Z,22.50
2022-10-26T22:33:38.520Z,22.50
2022-10-26T22:36:15.270Z,22.50
2022-10-26T22:38:42.189Z,22.40
2022-10-26T22:41:09.269Z,22.50
2022-10-26T22:43:37.448Z,22.40
2022-10-26T22:46:23.630Z,22.40
2022-10-26T22:48:54.693Z,22.50
2022-10-26T22:51:23.424Z,22.40
2022-10-26T22:53:53.858Z,22.40
2022-10-26T22:56:20.764Z,22.40
2022-10-26T22:58:47.540Z,22.40
2022-10-26T23:01:18.407Z,22.40
2022-10-26T23:03:45.235Z,22.40
2022-10-26T23:06:14.487Z,22.40
2022-10-26T23:08:41.438Z,22.40
2022-10-26T23:11:10.719Z,22.40
2022-10-26T23:13:37.696Z,22.40
2022-10-26T23:16:23.083Z,22.40
2022-10-26T23:18:49.883Z,22.40
2022-10-26T23:21:16.950Z,22.40
2022-10-26T23:23:43.760Z,22.40
2022-10-26T23:26:13.628Z,22.40
2022-10-26T23:28:41.875Z,22.40
2022-10-26T23:31:09.290Z,22.40
2022-10-26T23:33:36.263Z,22.40
2022-10-26T23:36:03.190Z,22.30
2022-10-26T23:38:29.961Z,22.30
2022-10-26T23:40:58.674Z,22.30
2022-10-26T23:43:26.105Z,22.40
2022-10-26T23:45:53.242Z,22.40
2022-10-26T23:48:20.010Z,22.30
2022-10-26T23:50:47.702Z,22.30
2022-10-26T23:53:14.781Z,22.40
2022-10-26T23:55:43.593Z,22.30
2022-10-26T23:58:11.205Z,22.30
